Time;durP1;ratioP1;P1;durP2;ratioP2;P2;SDS_P1;SDS_P2;PMS_P1;PMS_P2;Temp;Humidity;BMP_temperature;BMP_pressure;BME280_temperature;BME280_humidity;BME280_pressure;Samples;Min_cycle;Max_cycle;Signal;HPM_P1;HPM_P2
2022/06/05 00:01:09;;;;;;;3.10;2.85;;;22.80;94.00;;;;;;4999746;28;20211;-79
2022/06/05 00:03:55;;;;;;;2.60;2.40;;;22.80;93.90;;;;;;5030460;28;20210;-81
2022/06/05 00:06:53;;;;;;;3.05;2.78;;;22.80;94.20;;;;;;5017177;28;20197;-79
2022/06/05 00:09:43;;;;;;;3.00;2.72;;;22.70;94.20;;;;;;5017340;28;20202;-83
2022/06/05 00:12:12;;;;;;;3.03;2.72;;;22.70;94.20;;;;;;5017618;28;20198;-84
2022/06/05 00:14:39;;;;;;;3.40;3.10;;;22.70;94.20;;;;;;5016393;28;20187;-83
2022/06/05 00:17:17;;;;;;;3.60;2.63;;;22.70;94.10;;;;;;5013823;28;20207;-83
2022/06/05 00:19:46;;;;;;;3.13;2.83;;;22.70;94.30;;;;;;5016954;28;20476;-79
2022/06/05 00:22:12;;;;;;;3.13;2.88;;;22.70;94.20;;;;;;5007371;28;20478;-83
2022/06/05 00:24:42;;;;;;;2.78;2.58;;;22.60;94.10;;;;;;5014041;28;20210;-84
2022/06/05 00:27:24;;;;;;;3.42;3.13;;;22.60;94.20;;;;;;5017126;28;20219;-83
2022/06/05 00:29:55;;;;;;;3.25;2.58;;;22.60;94.60;;;;;;5001717;28;20195;-83
2022/06/05 00:32:35;;;;;;;3.88;3.10;;;22.60;94.30;;;;;;5016342;28;20232;-81
2022/06/05 00:35:01;;;;;;;3.38;2.83;;;22.60;94.60;;;;;;5011913;28;20206;-84
2022/06/05 00:37:42;;;;;;;3.28;2.97;;;22.60;94.50;;;;;;5017078;28;20213;-83
2022/06/05 00:40:14;;;;;;;2.90;2.70;;;22.60;95.10;;;;;;5014444;28;20249;-82
2022/06/05 00:42:39;;;;;;;4.28;2.67;;;22.50;94.70;;;;;;5031498;28;20183;-79
2022/06/05 00:45:10;;;;;;;3.20;2.60;;;22.50;94.70;;;;;;5020244;28;20191;-81
2022/06/05 00:47:37;;;;;;;2.67;2.47;;;22.50;94.80;;;;;;5020322;28;20209;-84
2022/06/05 00:50:22;;;;;;;3.08;2.75;;;22.50;94.70;;;;;;5017461;28;20186;-84
2022/06/05 00:52:56;;;;;;;2.85;2.65;;;22.50;95.10;;;;;;5012098;28;20213;-82
2022/06/05 00:55:22;;;;;;;2.90;2.70;;;22.50;94.90;;;;;;5017438;28;20286;-84
2022/06/05 00:57:48;;;;;;;3.10;2.80;;;22.40;94.80;;;;;;5018155;28;20175;-85
2022/06/05 01:00:34;;;;;;;3.00;2.45;;;22.40;94.90;;;;;;5015781;28;20182;-82
2022/06/05 01:03:04;;;;;;;2.80;2.60;;;22.40;95.40;;;;;;5013917;28;20218;-83
2022/06/05 01:05:34;;;;;;;3.50;2.65;;;22.40;95.10;;;;;;5010731;28;20229;-82
2022/06/05 01:07:59;;;;;;;2.80;2.58;;;22.40;95.10;;;;;;5016229;28;20183;-82
2022/06/05 01:10:39;;;;;;;2.83;2.50;;;22.40;95.10;;;;;;5015015;28;20193;-84
2022/06/05 01:13:07;;;;;;;2.75;2.38;;;22.40;95.50;;;;;;5007232;28;20325;-83
2022/06/05 01:15:49;;;;;;;2.97;2.67;;;22.30;95.20;;;;;;5016754;28;20292;-82
2022/06/05 01:18:36;;;;;;;3.10;2.80;;;22.30;95.70;;;;;;5018484;28;20253;-79
2022/06/05 01:21:07;;;;;;;3.45;2.70;;;22.30;95.90;;;;;;5016798;28;20186;-84
2022/06/05 01:24:11;;;;;;;3.50;2.80;;;22.30;95.80;;;;;;5032796;28;20313;-84
2022/06/05 01:26:43;;;;;;;3.35;2.80;;;22.20;96.10;;;;;;5015939;28;20270;-82
2022/06/05 01:29:15;;;;;;;3.15;2.80;;;22.20;95.80;;;;;;5012200;28;20184;-83
2022/06/05 01:31:55;;;;;;;2.80;2.60;;;22.10;96.00;;;;;;5019717;28;20217;-82
2022/06/05 01:34:23;;;;;;;3.10;2.53;;;22.00;95.90;;;;;;5004742;28;20228;-84
2022/06/05 01:37:03;;;;;;;2.80;2.58;;;22.00;96.00;;;;;;5020424;28;20176;-79
2022/06/05 01:39:38;;;;;;;3.08;2.78;;;21.90;96.10;;;;;;5007214;28;20179;-84
2022/06/05 01:42:24;;;;;;;2.58;2.38;;;21.90;96.30;;;;;;5006759;28;20178;-84
2022/06/05 01:44:55;;;;;;;3.03;2.72;;;21.80;96.60;;;;;;5015621;28;20205;-84
2022/06/05 01:47:32;;;;;;;3.22;2.92;;;21.80;96.20;;;;;;5014024;28;20248;-84
2022/06/05 01:50:20;;;;;;;2.95;2.75;;;21.80;96.40;;;;;;5031079;28;20189;-83
2022/06/05 01:53:08;;;;;;;3.05;2.72;;;21.70;96.80;;;;;;5010484;28;20285;-83
2022/06/05 01:55:40;;;;;;;3.30;3.00;;;21.70;97.00;;;;;;5015258;28;20170;-84
2022/06/05 01:58:10;;;;;;;3.03;2.72;;;21.60;96.70;;;;;;5031470;28;20171;-80
2022/06/05 02:00:40;;;;;;;3.22;2.92;;;21.60;96.70;;;;;;5023934;28;20190;-82
2022/06/05 02:03:27;;;;;;;3.20;2.90;;;21.50;96.90;;;;;;5015551;28;20183;-82
2022/06/05 02:06:00;;;;;;;4.35;2.80;;;21.50;97.20;;;;;;4995300;28;20285;-84
2022/06/05 02:08:46;;;;;;;3.10;2.80;;;21.40;97.20;;;;;;5012522;28;20176;-81
2022/06/05 02:11:23;;;;;;;3.58;3.28;;;21.30;97.70;;;;;;5015614;28;20220;-83
2022/06/05 02:13:54;;;;;;;3.30;3.00;;;21.30;97.60;;;;;;5015034;28;20206;-81
2022/06/05 02:16:22;;;;;;;3.42;3.13;;;21.20;97.30;;;;;;5011020;28;20248;-81
2022/06/05 02:18:48;;;;;;;3.13;2.92;;;21.20;97.30;;;;;;5014541;28;20190;-82
2022/06/05 02:21:19;;;;;;;2.70;2.50;;;21.10;97.50;;;;;;5015347;28;20305;-82
2022/06/05 02:23:45;;;;;;;3.60;3.17;;;21.10;97.80;;;;;;5016797;28;20182;-82
2022/06/05 02:26:13;;;;;;;3.25;2.90;;;21.00;97.60;;;;;;5013342;28;20175;-86
2022/06/05 02:28:39;;;;;;;3.42;3.13;;;21.00;97.70;;;;;;5016785;28;20266;-81
2022/06/05 02:31:21;;;;;;;3.15;2.92;;;21.00;97.90;;;;;;5020848;28;20237;-83
2022/06/05 02:34:46;;;;;;;3.30;3.00;;;20.90;98.40;;;;;;5014124;28;20206;-83
2022/06/05 02:37:25;;;;;;;3.40;2.83;;;20.90;99.00;;;;;;4955622;29;20202;-85
2022/06/05 02:40:22;;;;;;;3.50;3.20;;;20.90;98.70;;;;;;4998302;28;20206;-83
2022/06/05 02:43:07;;;;;;;3.80;3.38;;;20.80;99.10;;;;;;5015344;28;20178;-83
2022/06/05 02:45:43;;;;;;;3.88;3.42;;;20.80;98.90;;;;;;5031661;28;20254;-82
2022/06/05 02:48:24;;;;;;;3.15;2.85;;;20.80;98.70;;;;;;5006525;28;20198;-85
2022/06/05 02:51:02;;;;;;;3.20;2.90;;;20.80;99.10;;;;;;5005122;28;20203;-70
2022/06/05 02:53:28;;;;;;;3.47;2.97;;;20.80;99.20;;;;;;5030885;28;20170;-67
2022/06/05 02:55:56;;;;;;;3.13;2.80;;;20.70;98.70;;;;;;5010950;28;20195;-67
2022/06/05 02:58:21;;;;;;;3.50;3.20;;;20.70;98.90;;;;;;5008270;28;20176;-67
2022/06/05 03:03:34;;;;;;;3.20;2.90;;;20.60;99.10;;;;;;5003180;28;20241;-68
2022/06/05 03:06:03;;;;;;;3.08;2.78;;;20.70;99.20;;;;;;5014994;28;20174;-68
2022/06/05 03:08:31;;;;;;;3.22;2.92;;;20.60;99.40;;;;;;5014755;28;20182;-67
2022/06/05 03:10:58;;;;;;;3.40;3.10;;;20.60;99.30;;;;;;5015189;28;20236;-68
2022/06/05 03:13:24;;;;;;;3.22;2.92;;;20.60;99.50;;;;;;5014500;28;20194;-68
2022/06/05 03:15:50;;;;;;;3.20;2.90;;;20.50;99.60;;;;;;5014465;28;20269;-67
2022/06/05 03:18:17;;;;;;;3.30;3.00;;;20.50;99.90;;;;;;5014580;28;20218;-68
2022/06/05 03:20:44;;;;;;;3.10;2.80;;;20.50;99.90;;;;;;5013979;28;20189;-68
2022/06/05 03:23:14;;;;;;;4.32;3.00;;;20.50;99.90;;;;;;5024883;28;20228;-68
2022/06/05 03:25:42;;;;;;;3.15;2.80;;;20.50;99.90;;;;;;5007620;28;20183;-67
2022/06/05 03:28:09;;;;;;;3.40;2.80;;;20.50;99.90;;;;;;5013564;28;20182;-68
2022/06/05 03:30:41;;;;;;;6.30;3.20;;;20.50;99.90;;;;;;5013841;28;20183;-68
2022/06/05 03:33:07;;;;;;;3.47;2.85;;;20.50;99.90;;;;;;5011112;28;20281;-68
2022/06/05 03:35:43;;;;;;;3.30;2.78;;;20.50;99.90;;;;;;5006183;28;20434;-68
2022/06/05 03:38:10;;;;;;;3.90;2.80;;;20.50;99.90;;;;;;5007534;28;20221;-68
2022/06/05 03:40:39;;;;;;;2.95;2.75;;;20.50;99.90;;;;;;5014409;28;20198;-68
2022/06/05 03:43:05;;;;;;;3.13;2.83;;;20.50;99.90;;;;;;5008615;28;20189;-67
2022/06/05 03:45:33;;;;;;;2.90;2.70;;;20.50;99.90;;;;;;5011431;28;20203;-68
2022/06/05 03:47:59;;;;;;;3.03;2.72;;;20.50;99.90;;;;;;5014606;28;20174;-68
2022/06/05 03:50:24;;;;;;;2.72;2.53;;;20.50;99.90;;;;;;5014206;28;20181;-66
2022/06/05 03:52:53;;;;;;;3.17;2.90;;;20.50;99.90;;;;;;5017397;28;20206;-68
2022/06/05 03:55:21;;;;;;;3.00;2.80;;;20.50;99.90;;;;;;5014939;28;20209;-67
2022/06/05 03:57:48;;;;;;;3.00;2.75;;;20.50;99.90;;;;;;5015651;28;20222;-68
2022/06/05 04:00:15;;;;;;;2.80;2.60;;;20.50;99.90;;;;;;5016701;28;20190;-68
2022/06/05 04:02:41;;;;;;;3.15;2.85;;;20.50;99.90;;;;;;5009054;28;20217;-67
2022/06/05 04:05:11;;;;;;;3.33;2.83;;;20.60;99.90;;;;;;5017980;28;20183;-68
2022/06/05 04:07:37;;;;;;;3.72;2.83;;;20.60;99.90;;;;;;5014095;28;20261;-68
2022/06/05 04:10:07;;;;;;;3.15;2.70;;;20.60;99.90;;;;;;5016240;28;20183;-67
2022/06/05 04:12:32;;;;;;;2.97;2.67;;;20.60;99.90;;;;;;5017178;28;20205;-68
2022/06/05 04:15:01;;;;;;;2.90;2.70;;;20.60;99.90;;;;;;5017695;28;20191;-67
2022/06/05 04:17:31;;;;;;;2.80;2.60;;;20.60;99.90;;;;;;5014183;28;20245;-67
2022/06/05 04:19:59;;;;;;;2.97;2.72;;;20.60;99.90;;;;;;5016959;28;20273;-67
2022/06/05 04:22:25;;;;;;;8.60;7.32;;;20.60;99.90;;;;;;5032067;28;20183;-68
2022/06/05 04:24:51;;;;;;;5.78;5.00;;;20.60;99.90;;;;;;5017356;28;20221;-68
2022/06/05 04:27:16;;;;;;;4.15;3.75;;;20.60;99.90;;;;;;5021158;28;20204;-68
2022/06/05 04:29:42;;;;;;;3.75;3.35;;;20.60;99.90;;;;;;5015807;28;20189;-66
2022/06/05 04:32:08;;;;;;;3.28;2.97;;;20.70;99.90;;;;;;5017716;28;20215;-67
2022/06/05 04:34:35;;;;;;;3.15;2.80;;;20.70;99.90;;;;;;5016720;28;20175;-68
2022/06/05 04:37:02;;;;;;;3.10;2.80;;;20.70;99.90;;;;;;5013195;28;20183;-67
2022/06/05 04:39:28;;;;;;;3.58;2.97;;;20.70;99.90;;;;;;5003599;28;20190;-68
2022/06/05 04:41:54;;;;;;;3.28;2.97;;;20.70;99.90;;;;;;5016581;28;20179;-68
2022/06/05 04:44:20;;;;;;;11.55;9.38;;;20.80;99.90;;;;;;5015450;28;20174;-67
2022/06/05 04:46:48;;;;;;;6.75;6.13;;;20.80;99.90;;;;;;5014199;28;20171;-68
2022/06/05 04:49:17;;;;;;;4.50;4.10;;;20.80;99.90;;;;;;5017428;28;20199;-68
2022/06/05 04:51:47;;;;;;;4.70;3.65;;;20.80;99.90;;;;;;5016998;28;20199;-68
2022/06/05 04:54:16;;;;;;;5.03;4.60;;;20.80;99.90;;;;;;5017134;28;20175;-67
2022/06/05 04:56:45;;;;;;;4.68;4.28;;;20.90;99.90;;;;;;5016794;28;20202;-67
2022/06/05 04:59:12;;;;;;;4.30;3.90;;;20.90;99.90;;;;;;5008502;28;20207;-68
2022/06/05 05:01:40;;;;;;;4.00;3.63;;;20.90;99.90;;;;;;5028432;28;20187;-68
2022/06/05 05:04:12;;;;;;;3.55;3.25;;;20.90;99.90;;;;;;5017800;28;20198;-68
2022/06/05 05:06:40;;;;;;;3.40;2.92;;;20.90;99.90;;;;;;5016957;28;20175;-68
2022/06/05 05:09:06;;;;;;;3.53;3.20;;;20.90;99.90;;;;;;5015950;28;20257;-68
2022/06/05 05:11:33;;;;;;;3.30;2.92;;;21.00;99.90;;;;;;5012817;28;20211;-68
2022/06/05 05:13:59;;;;;;;2.92;2.72;;;21.00;99.90;;;;;;5012913;28;20183;-68
2022/06/05 05:16:29;;;;;;;5.72;3.13;;;21.00;99.90;;;;;;5032796;28;20333;-68
2022/06/05 05:18:55;;;;;;;3.55;3.00;;;21.00;99.90;;;;;;5015270;28;20174;-68
2022/06/05 05:21:23;;;;;;;2.83;2.60;;;21.00;99.90;;;;;;5015334;28;20198;-68
2022/06/05 05:23:50;;;;;;;3.38;3.03;;;21.00;99.90;;;;;;5015767;28;20218;-68
2022/06/05 05:26:19;;;;;;;5.07;4.57;;;21.10;99.90;;;;;;5015827;28;20210;-68
2022/06/05 05:28:45;;;;;;;4.90;4.32;;;21.10;99.90;;;;;;5014803;28;20178;-68
2022/06/05 05:31:20;;;;;;;4.43;4.03;;;21.10;99.90;;;;;;5002770;28;20253;-68
2022/06/05 05:33:49;;;;;;;3.88;3.47;;;21.10;99.90;;;;;;5015009;28;20189;-68
2022/06/05 05:36:19;;;;;;;3.35;3.03;;;21.00;99.90;;;;;;5015203;28;20204;-67
2022/06/05 05:44:20;;;;;;;3.67;3.08;;;21.10;99.90;;;;;;5016213;28;20192;-68
2022/06/05 05:46:46;;;;;;;3.28;2.97;;;21.10;99.90;;;;;;5013475;28;20203;-69
2022/06/05 05:49:13;;;;;;;3.60;3.22;;;21.10;99.90;;;;;;5028566;28;20179;-68
2022/06/05 05:51:39;;;;;;;3.45;3.15;;;21.10;99.90;;;;;;5000861;28;20560;-68
2022/06/05 05:54:05;;;;;;;4.22;3.83;;;21.20;99.90;;;;;;5012182;28;20183;-68
2022/06/05 05:56:31;;;;;;;5.95;5.35;;;21.20;99.90;;;;;;5013091;28;20185;-67
2022/06/05 05:58:57;;;;;;;4.50;4.10;;;21.20;99.90;;;;;;5015889;28;20285;-68
2022/06/05 06:01:23;;;;;;;3.92;3.63;;;21.20;99.90;;;;;;5005328;28;20338;-68
2022/06/05 06:03:49;;;;;;;3.97;3.58;;;21.30;99.90;;;;;;5015257;28;20174;-68
2022/06/05 06:06:20;;;;;;;3.80;3.40;;;21.30;99.90;;;;;;5014423;28;20178;-68
2022/06/05 06:08:48;;;;;;;3.75;3.05;;;21.30;99.90;;;;;;5025589;28;20199;-67
2022/06/05 06:11:14;;;;;;;3.30;2.80;;;21.30;99.90;;;;;;5003250;28;20312;-68
2022/06/05 06:13:39;;;;;;;3.50;3.20;;;21.30;99.90;;;;;;5031940;28;20194;-68
2022/06/05 06:16:07;;;;;;;3.60;3.30;;;21.30;99.90;;;;;;5002560;28;20278;-68
2022/06/05 06:18:33;;;;;;;3.22;2.92;;;21.40;99.90;;;;;;5027846;28;20179;-67
2022/06/05 06:20:58;;;;;;;3.45;3.15;;;21.40;99.90;;;;;;5014341;28;20174;-68
2022/06/05 06:23:25;;;;;;;7.05;5.20;;;21.40;99.90;;;;;;5015569;28;20256;-68
2022/06/05 06:25:50;;;;;;;4.40;3.58;;;21.40;99.90;;;;;;5014433;28;20171;-68
2022/06/05 06:28:18;;;;;;;4.28;3.88;;;21.50;99.90;;;;;;5015117;28;20273;-68
2022/06/05 06:30:45;;;;;;;5.25;3.90;;;21.50;99.90;;;;;;5015006;28;20174;-68
2022/06/05 06:33:10;;;;;;;4.40;3.95;;;21.50;99.90;;;;;;5014290;28;20202;-68
2022/06/05 06:35:37;;;;;;;4.00;3.60;;;21.60;99.90;;;;;;5004542;28;20195;-68
2022/06/05 06:38:04;;;;;;;3.67;3.38;;;21.50;99.90;;;;;;5015637;28;20171;-68
2022/06/05 06:40:30;;;;;;;3.60;3.30;;;21.60;99.90;;;;;;5015457;28;20210;-68
2022/06/05 06:42:57;;;;;;;3.80;3.50;;;21.60;99.90;;;;;;5013507;28;20205;-68
2022/06/05 06:45:23;;;;;;;3.72;3.42;;;21.60;99.90;;;;;;5014591;28;20174;-68
2022/06/05 06:47:51;;;;;;;5.90;4.40;;;21.60;99.90;;;;;;5013797;28;20190;-68
2022/06/05 06:50:17;;;;;;;4.30;3.60;;;21.70;99.90;;;;;;5014597;28;20185;-68
2022/06/05 06:52:43;;;;;;;4.28;3.50;;;21.70;99.90;;;;;;5014827;28;20215;-68
2022/06/05 06:55:16;;;;;;;4.05;2.97;;;21.70;99.90;;;;;;5010172;28;20443;-69
2022/06/05 06:57:45;;;;;;;4.90;3.45;;;21.80;99.90;;;;;;5013202;28;20273;-68
2022/06/05 07:00:15;;;;;;;3.40;3.10;;;21.80;99.90;;;;;;5015094;28;20255;-69
2022/06/05 07:02:41;;;;;;;3.65;3.35;;;21.90;99.90;;;;;;4996582;28;20189;-69
2022/06/05 07:05:08;;;;;;;3.40;3.10;;;21.90;99.90;;;;;;5015729;28;20210;-69
2022/06/05 07:07:34;;;;;;;4.38;3.20;;;22.00;99.90;;;;;;5027846;28;20192;-69
2022/06/05 07:09:59;;;;;;;4.70;4.20;;;22.00;99.90;;;;;;5011897;28;20202;-68
2022/06/05 07:12:27;;;;;;;3.97;3.60;;;22.00;99.90;;;;;;5010945;28;20210;-68
2022/06/05 07:14:53;;;;;;;3.95;3.45;;;22.00;99.90;;;;;;5010708;28;20194;-68
2022/06/05 07:17:18;;;;;;;3.72;3.42;;;22.10;99.90;;;;;;5008059;28;20211;-69
2022/06/05 07:19:44;;;;;;;3.70;3.40;;;22.10;99.90;;;;;;5013843;28;20258;-68
2022/06/05 07:22:10;;;;;;;4.43;3.90;;;22.10;99.90;;;;;;5009634;28;20179;-69
2022/06/05 07:24:35;;;;;;;3.70;3.40;;;22.20;99.90;;;;;;5016776;28;20237;-69
2022/06/05 07:27:03;;;;;;;3.70;3.40;;;22.20;99.90;;;;;;5016126;28;20222;-67
2022/06/05 07:29:29;;;;;;;3.63;3.33;;;22.30;99.90;;;;;;5016996;28;20190;-69
2022/06/05 07:31:57;;;;;;;4.55;3.40;;;22.30;99.90;;;;;;5018220;28;20197;-68
2022/06/05 07:34:25;;;;;;;3.63;3.33;;;22.40;99.90;;;;;;5003816;28;20174;-68
2022/06/05 07:36:53;;;;;;;3.80;3.50;;;22.50;99.90;;;;;;5003909;28;20199;-68
2022/06/05 07:39:18;;;;;;;3.72;3.25;;;22.60;99.90;;;;;;5015892;28;20171;-68
2022/06/05 07:41:44;;;;;;;3.47;3.17;;;22.70;99.90;;;;;;5018768;28;20200;-68
2022/06/05 07:44:12;;;;;;;3.47;3.17;;;22.70;99.90;;;;;;5014225;28;20179;-69
2022/06/05 07:46:40;;;;;;;3.80;3.50;;;22.80;99.90;;;;;;5017599;28;20174;-70
2022/06/05 07:49:06;;;;;;;3.78;2.97;;;22.90;99.90;;;;;;5016091;28;20270;-68
2022/06/05 07:54:30;;;;;;;3.60;3.30;;;22.90;99.90;;;;;;4982088;28;20179;-68
2022/06/05 07:57:08;;;;;;;3.30;3.00;;;22.90;99.90;;;;;;5019725;28;20179;-68
2022/06/05 07:59:37;;;;;;;3.67;3.10;;;22.90;99.90;;;;;;5018623;28;20184;-69
2022/06/05 08:02:07;;;;;;;3.50;2.72;;;22.90;99.90;;;;;;5013964;28;20234;-68
2022/06/05 08:04:35;;;;;;;3.60;3.30;;;22.90;99.90;;;;;;5017958;28;20175;-69
2022/06/05 08:07:02;;;;;;;4.32;3.15;;;22.80;99.90;;;;;;5014549;28;20517;-68
2022/06/05 08:09:28;;;;;;;3.40;3.10;;;22.80;99.90;;;;;;5010363;28;20179;-68
2022/06/05 08:11:54;;;;;;;4.30;3.40;;;22.80;99.90;;;;;;5010949;28;20280;-69
2022/06/05 08:14:20;;;;;;;6.05;3.97;;;22.70;99.90;;;;;;5023587;28;20179;-69
2022/06/05 08:16:46;;;;;;;4.40;3.75;;;22.70;99.90;;;;;;5011035;28;20190;-68
2022/06/05 08:19:16;;;;;;;6.72;3.67;;;22.70;99.90;;;;;;5016831;28;20195;-69
2022/06/05 08:21:42;;;;;;;3.65;3.35;;;22.60;99.90;;;;;;5006279;28;20247;-70
2022/06/05 08:24:10;;;;;;;3.38;3.08;;;22.60;99.90;;;;;;5015079;28;20217;-69
2022/06/05 08:26:36;;;;;;;4.10;3.70;;;22.50;99.90;;;;;;5017212;28;20206;-68
2022/06/05 08:29:04;;;;;;;3.70;3.40;;;22.50;99.90;;;;;;5017351;28;20185;-68
2022/06/05 08:31:30;;;;;;;3.67;3.38;;;22.50;99.90;;;;;;5016583;28;20217;-69
2022/06/05 08:34:01;;;;;;;3.90;3.60;;;22.40;99.90;;;;;;5012876;28;20243;-68
2022/06/05 08:36:27;;;;;;;4.00;3.70;;;22.30;99.90;;;;;;5015435;28;20264;-69
2022/06/05 08:42:11;;;;;;;3.45;3.15;;;22.20;99.90;;;;;;4999104;28;20181;-69
2022/06/05 08:44:50;;;;;;;4.55;4.10;;;22.10;99.90;;;;;;5000532;28;20257;-68
2022/06/05 08:47:41;;;;;;;4.28;3.88;;;22.10;99.90;;;;;;5013717;28;20186;-68
2022/06/05 08:50:10;;;;;;;4.28;3.90;;;22.00;99.90;;;;;;5032335;28;20213;-68
2022/06/05 08:52:52;;;;;;;4.47;3.55;;;21.90;99.90;;;;;;5016718;28;20263;-68
2022/06/05 08:55:21;;;;;;;4.30;3.90;;;21.80;99.90;;;;;;5015269;28;20171;-68
2022/06/05 08:57:59;;;;;;;4.10;3.72;;;21.70;99.90;;;;;;5033055;28;20198;-68
2022/06/05 09:00:41;;;;;;;3.92;3.63;;;21.70;99.90;;;;;;5017007;28;20189;-69
2022/06/05 09:03:21;;;;;;;3.78;3.45;;;21.60;99.90;;;;;;5033557;28;20229;-68
2022/06/05 09:05:52;;;;;;;4.00;3.60;;;21.50;99.90;;;;;;5031168;28;24053;-68
2022/06/05 09:08:20;;;;;;;7.68;6.25;;;21.50;99.90;;;;;;5027579;28;20172;-69
2022/06/05 09:10:49;;;;;;;8.27;7.32;;;21.40;99.90;;;;;;5016213;28;20233;-69
2022/06/05 09:13:18;;;;;;;5.65;5.15;;;21.40;99.90;;;;;;5008152;28;20199;-69
2022/06/05 09:15:56;;;;;;;5.50;5.00;;;21.30;99.90;;;;;;5023951;28;20222;-69
2022/06/05 09:18:26;;;;;;;5.32;4.82;;;21.30;99.90;;;;;;5013083;28;20177;-69
2022/06/05 09:20:57;;;;;;;4.57;4.18;;;21.30;99.90;;;;;;5024938;28;20214;-68
2022/06/05 09:23:45;;;;;;;5.53;4.65;;;21.30;99.90;;;;;;5007744;28;20245;-68
2022/06/05 09:26:24;;;;;;;4.50;4.10;;;21.20;99.90;;;;;;5013826;28;20182;-68
2022/06/05 09:29:13;;;;;;;4.93;4.53;;;21.20;99.90;;;;;;5014181;28;20441;-68
2022/06/05 09:32:05;;;;;;;5.07;4.57;;;21.20;99.90;;;;;;5015665;28;20203;-69
2022/06/05 09:34:43;;;;;;;4.78;4.38;;;21.20;99.90;;;;;;5000733;28;20196;-68
2022/06/05 09:37:22;;;;;;;4.93;4.47;;;21.20;99.90;;;;;;5014455;28;20178;-69
2022/06/05 09:40:00;;;;;;;5.03;4.63;;;21.20;99.90;;;;;;5008711;28;20179;-68
2022/06/05 09:42:51;;;;;;;5.03;4.63;;;21.30;99.90;;;;;;5022263;28;20175;-69
2022/06/05 09:45:19;;;;;;;5.07;4.65;;;21.30;99.90;;;;;;5003666;28;20175;-68
2022/06/05 09:48:00;;;;;;;5.30;4.88;;;21.30;99.90;;;;;;5005078;28;20174;-69
2022/06/05 09:50:28;;;;;;;5.22;4.82;;;21.30;99.90;;;;;;5013238;28;20187;-69
2022/06/05 09:52:54;;;;;;;5.82;5.32;;;21.40;99.90;;;;;;5021550;28;20203;-69
2022/06/05 09:55:36;;;;;;;5.97;5.40;;;21.40;99.90;;;;;;5015629;28;20175;-69
2022/06/05 09:58:31;;;;;;;5.53;5.03;;;21.50;99.90;;;;;;5015189;28;20183;-70
2022/06/05 10:01:25;;;;;;;6.10;5.43;;;21.50;99.90;;;;;;5026265;28;20176;-73
2022/06/05 10:03:52;;;;;;;5.32;4.82;;;21.50;99.90;;;;;;5015970;28;20167;-73
2022/06/05 10:06:45;;;;;;;5.47;4.97;;;21.50;99.90;;;;;;5015521;28;20256;-73
2022/06/05 10:09:19;;;;;;;5.63;5.13;;;21.50;99.90;;;;;;5015913;28;20209;-73
2022/06/05 10:12:03;;;;;;;5.32;4.85;;;21.40;99.90;;;;;;5012561;28;20222;-72
2022/06/05 10:14:33;;;;;;;5.60;5.10;;;21.40;99.90;;;;;;5009929;28;20324;-71
2022/06/05 10:17:24;;;;;;;5.75;5.25;;;21.40;99.90;;;;;;5015483;28;20202;-72
2022/06/05 10:20:06;;;;;;;5.47;4.97;;;21.40;99.90;;;;;;5004050;28;20176;-72
2022/06/05 10:22:57;;;;;;;5.65;5.15;;;21.50;99.90;;;;;;5030161;28;20205;-73
2022/06/05 10:26:04;;;;;;;5.57;5.07;;;21.60;99.90;;;;;;5015923;28;20186;-73
2022/06/05 10:28:32;;;;;;;6.10;5.60;;;21.70;99.90;;;;;;5012889;28;20175;-72
2022/06/05 10:31:03;;;;;;;5.88;5.38;;;21.80;99.90;;;;;;5008898;28;20418;-72
2022/06/05 10:33:53;;;;;;;5.97;5.47;;;21.80;99.90;;;;;;5016142;28;20186;-73
2022/06/05 10:36:46;;;;;;;6.28;5.72;;;21.90;99.90;;;;;;5015758;28;20253;-73
2022/06/05 10:39:57;;;;;;;6.13;5.63;;;22.00;99.90;;;;;;5020710;28;20313;-72
2022/06/05 10:42:35;;;;;;;6.00;5.35;;;22.20;99.90;;;;;;4976528;28;20219;-73
2022/06/05 10:45:27;;;;;;;5.88;5.45;;;22.40;99.90;;;;;;5017271;28;20193;-73
2022/06/05 10:47:58;;;;;;;5.28;4.78;;;22.80;99.90;;;;;;4996876;28;20199;-73
2022/06/05 10:50:35;;;;;;;5.35;4.95;;;23.10;99.90;;;;;;5029049;28;20190;-72
2022/06/05 10:53:29;;;;;;;5.40;4.90;;;23.40;99.90;;;;;;5015440;28;20224;-71
2022/06/05 10:56:00;;;;;;;5.53;5.03;;;23.60;99.90;;;;;;5020221;28;20214;-73
2022/06/05 10:58:39;;;;;;;5.20;4.80;;;23.70;99.90;;;;;;5029846;28;20278;-70
2022/06/05 11:01:42;;;;;;;5.32;4.82;;;23.80;99.90;;;;;;5031923;28;20265;-88
2022/06/05 11:04:36;;;;;;;6.00;5.40;;;23.90;99.90;;;;;;5031810;28;20218;-79
2022/06/05 11:07:29;;;;;;;5.53;5.05;;;23.90;99.90;;;;;;5029055;28;20197;-83
2022/06/05 11:10:13;;;;;;;4.93;4.53;;;24.00;99.90;;;;;;5025509;28;20238;-85
2022/06/05 11:15:48;;;;;;;4.90;4.50;;;24.10;99.90;;;;;;5002487;28;20197;-81
2022/06/05 11:18:24;;;;;;;5.05;4.65;;;24.10;99.90;;;;;;5030044;28;20229;-86
2022/06/05 11:20:57;;;;;;;4.88;4.47;;;24.10;99.90;;;;;;5012671;28;20178;-81
2022/06/05 11:23:28;;;;;;;5.03;4.40;;;24.10;99.90;;;;;;5009712;28;20274;-80
2022/06/05 11:26:17;;;;;;;5.15;4.75;;;24.00;99.90;;;;;;5008506;28;20261;-78
2022/06/05 11:28:54;;;;;;;4.70;4.30;;;24.00;99.90;;;;;;5030432;28;20199;-79
2022/06/05 11:31:57;;;;;;;4.93;4.53;;;23.90;99.90;;;;;;5014251;28;20202;-81
2022/06/05 11:34:48;;;;;;;4.82;4.43;;;23.90;99.90;;;;;;5014361;28;20170;-84
2022/06/05 11:37:35;;;;;;;4.65;4.25;;;23.90;99.90;;;;;;5027053;28;20197;-84
2022/06/05 11:40:35;;;;;;;4.95;4.53;;;23.90;99.90;;;;;;5026970;28;20182;-84
2022/06/05 11:43:00;;;;;;;6.55;4.63;;;23.90;99.90;;;;;;4998791;28;20265;-89
2022/06/05 11:45:46;;;;;;;4.80;4.30;;;23.90;99.90;;;;;;5016092;28;20179;-81
2022/06/05 11:48:30;;;;;;;4.90;4.40;;;23.90;99.90;;;;;;5031226;28;20190;-82
2022/06/05 11:51:21;;;;;;;5.05;4.65;;;23.90;99.90;;;;;;5031298;28;20273;-82
2022/06/05 11:53:52;;;;;;;4.60;4.20;;;23.90;99.90;;;;;;5026639;28;20270;-83
2022/06/05 11:56:33;;;;;;;6.03;5.10;;;23.90;99.90;;;;;;5024680;28;20203;-85
2022/06/05 11:59:13;;;;;;;5.47;5.07;;;23.90;99.90;;;;;;5030029;28;20197;-88
2022/06/05 12:01:48;;;;;;;6.13;5.63;;;23.80;99.90;;;;;;5023237;28;20175;-88
2022/06/05 12:04:31;;;;;;;4.70;4.30;;;23.80;99.90;;;;;;5012280;28;20175;-84
2022/06/05 12:07:03;;;;;;;5.50;5.00;;;23.70;99.90;;;;;;5009056;28;20181;-87
2022/06/05 12:09:35;;;;;;;5.60;5.18;;;23.70;99.90;;;;;;5014187;28;20273;-83
2022/06/05 12:12:27;;;;;;;5.50;5.00;;;23.60;99.90;;;;;;5015156;28;20214;-83
2022/06/05 12:15:41;;;;;;;5.47;5.03;;;23.60;99.90;;;;;;5010415;28;20268;-80
2022/06/05 12:18:15;;;;;;;5.90;5.40;;;23.60;99.90;;;;;;5012766;28;20205;-80
2022/06/05 12:21:09;;;;;;;7.22;6.50;;;23.50;99.90;;;;;;5014135;28;20174;-78
2022/06/05 12:23:41;;;;;;;5.90;5.40;;;23.50;99.90;;;;;;5015200;28;20208;-81
2022/06/05 12:26:25;;;;;;;6.15;5.57;;;23.40;99.90;;;;;;5009340;28;20172;-80
2022/06/05 12:29:13;;;;;;;5.35;4.95;;;23.40;99.90;;;;;;5015940;28;20481;-81
2022/06/05 12:31:47;;;;;;;6.25;5.65;;;23.50;99.90;;;;;;5007980;28;20297;-82
2022/06/05 12:34:29;;;;;;;5.70;5.15;;;23.50;99.90;;;;;;5009277;28;21606;-76
2022/06/05 12:37:26;;;;;;;5.43;4.93;;;23.60;99.90;;;;;;5010645;28;20194;-81
2022/06/05 12:39:58;;;;;;;5.65;5.18;;;23.70;99.90;;;;;;5007519;28;20221;-78
2022/06/05 12:42:47;;;;;;;5.35;4.95;;;23.90;99.90;;;;;;5016487;28;20226;-80
2022/06/05 12:45:25;;;;;;;5.20;4.70;;;24.10;99.90;;;;;;5030744;28;20175;-84
2022/06/05 12:48:05;;;;;;;4.72;4.32;;;24.20;99.90;;;;;;5026723;28;20352;-77
2022/06/05 12:50:36;;;;;;;5.25;4.40;;;24.40;99.90;;;;;;5029616;28;20269;-86
2022/06/05 12:53:23;;;;;;;4.55;4.18;;;24.60;99.90;;;;;;5033756;28;20194;-80
2022/06/05 12:55:49;;;;;;;3.90;3.60;;;24.70;99.90;;;;;;5012823;28;20186;-78
2022/06/05 12:58:33;;;;;;;3.75;3.45;;;24.70;99.90;;;;;;5032705;28;20186;-81
2022/06/05 13:01:16;;;;;;;3.78;3.47;;;24.70;99.90;;;;;;5015813;28;20277;-79
2022/06/05 13:04:01;;;;;;;4.40;4.00;;;24.70;99.90;;;;;;5027051;28;20253;-87
2022/06/05 13:06:34;;;;;;;5.20;4.78;;;24.70;99.90;;;;;;5012529;28;20285;-80
2022/06/05 13:09:27;;;;;;;4.30;3.90;;;24.70;99.90;;;;;;5014173;28;20182;-79
2022/06/05 13:12:30;;;;;;;3.80;3.50;;;24.70;99.90;;;;;;5012412;28;20290;-78
2022/06/05 13:15:33;;;;;;;3.88;3.55;;;24.60;99.90;;;;;;5015534;28;20304;-84
2022/06/05 13:18:01;;;;;;;4.22;3.92;;;24.60;99.90;;;;;;5031816;28;20225;-82
2022/06/05 13:20:41;;;;;;;3.75;3.45;;;24.60;99.90;;;;;;5013983;28;20197;-78
2022/06/05 13:23:13;;;;;;;4.80;4.30;;;24.60;99.90;;;;;;5008329;28;20210;-84
2022/06/05 13:25:57;;;;;;;4.53;4.13;;;24.60;99.90;;;;;;5025974;28;20193;-85
2022/06/05 13:29:04;;;;;;;4.88;4.47;;;24.70;99.90;;;;;;5025113;28;20236;-84
2022/06/05 13:31:50;;;;;;;4.13;3.83;;;24.70;99.90;;;;;;5022415;28;20182;-83
2022/06/05 13:34:39;;;;;;;4.35;3.95;;;24.70;99.90;;;;;;4995910;28;20241;-84
2022/06/05 13:37:27;;;;;;;4.57;4.10;;;24.70;99.90;;;;;;5016613;28;20175;-84
2022/06/05 13:40:03;;;;;;;4.40;4.00;;;24.70;99.90;;;;;;5027944;28;20217;-87
2022/06/05 13:42:36;;;;;;;4.07;3.67;;;24.60;99.90;;;;;;5015249;28;20249;-82